Time;durP1;ratioP1;P1;durP2;ratioP2;P2;SDS_P1;SDS_P2;PMS_P1;PMS_P2;Temp;Humidity;BMP_temperature;BMP_pressure;BME280_temperature;BME280_humidity;BME280_pressure;Samples;Min_cycle;Max_cycle;Signal;HPM_P1;HPM_P2
2022/04/13 00:01:09;;;;;;;15.87;10.97;;;12.50;68.10;;;;;;10299282;28;20236;-92
2022/04/13 00:06:11;;;;;;;21.67;13.93;;;12.40;67.80;;;;;;10316503;28;20596;-92
2022/04/13 00:11:14;;;;;;;11.97;7.93;;;10.80;67.50;;;;;;10298467;28;20240;-92
2022/04/13 00:16:17;;;;;;;18.13;11.60;;;11.60;72.30;;;;;;10315087;28;20268;-91
2022/04/13 00:21:20;;;;;;;12.40;7.70;;;12.40;67.70;;;;;;10314468;28;20246;-92
2022/04/13 00:26:23;;;;;;;8.70;6.50;;;12.60;69.10;;;;;;10290145;28;20261;-92
2022/04/13 00:31:26;;;;;;;8.00;5.97;;;12.80;69.10;;;;;;10313939;28;20295;-93
2022/04/13 00:36:28;;;;;;;14.07;8.63;;;13.10;68.40;;;;;;10314019;28;20201;-92
2022/04/13 00:41:31;;;;;;;7.53;5.17;;;12.80;66.50;;;;;;10312782;28;21033;-93
2022/04/13 00:46:34;;;;;;;12.47;8.53;;;13.40;67.40;;;;;;10296763;28;20730;-92
2022/04/13 00:51:37;;;;;;;11.67;7.30;;;13.00;65.50;;;;;;10330836;28;20229;-92
2022/04/13 00:56:41;;;;;;;13.57;10.10;;;13.00;68.60;;;;;;10313734;28;20215;-91
2022/04/13 01:01:49;;;;;;;13.73;9.80;;;13.30;64.80;;;;;;10314158;28;20733;-92
2022/04/13 01:06:53;;;;;;;8.90;4.93;;;13.40;65.70;;;;;;10316372;28;20313;-92
2022/04/13 01:11:56;;;;;;;9.93;6.17;;;13.40;67.50;;;;;;10346969;28;20226;-92
2022/04/13 01:17:00;;;;;;;12.20;9.13;;;13.20;67.40;;;;;;10378801;28;20212;-92
2022/04/13 01:22:19;;;;;;;7.40;5.07;;;13.70;63.80;;;;;;10344976;28;20263;-92
2022/04/13 01:27:22;;;;;;;5.77;4.37;;;13.80;60.40;;;;;;10361364;28;20214;-93
2022/04/13 01:32:24;;;;;;;7.60;5.87;;;14.20;65.90;;;;;;10376804;28;20283;-93
2022/04/13 01:37:27;;;;;;;11.03;8.13;;;14.40;65.30;;;;;;10375661;28;20248;-91
2022/04/13 01:42:29;;;;;;;5.03;4.33;;;14.30;63.90;;;;;;10375962;28;20216;-92
2022/04/13 01:47:32;;;;;;;7.93;5.30;;;14.60;64.60;;;;;;10359179;28;20683;-94
2022/04/13 01:52:35;;;;;;;5.63;4.60;;;14.70;64.30;;;;;;10376653;28;20272;-92
2022/04/13 01:57:38;;;;;;;7.67;5.30;;;14.80;63.80;;;;;;10358763;28;20204;-93
2022/04/13 02:02:41;;;;;;;6.20;4.77;;;15.00;63.20;;;;;;10359876;28;20545;-93
2022/04/13 02:07:43;;;;;;;6.37;5.23;;;15.00;63.20;;;;;;10358809;28;20258;-92
2022/04/13 02:12:47;;;;;;;8.83;5.07;;;14.80;63.10;;;;;;10366009;28;20770;-92
2022/04/13 02:17:50;;;;;;;12.43;9.57;;;15.00;63.10;;;;;;10350977;28;20213;-92
2022/04/13 02:22:53;;;;;;;7.00;4.90;;;15.10;59.50;;;;;;10357024;28;20214;-93
2022/04/13 02:27:55;;;;;;;7.83;6.20;;;15.00;63.00;;;;;;10353740;28;20207;-93
2022/04/13 02:32:59;;;;;;;7.77;5.53;;;15.20;62.90;;;;;;10334566;28;20251;-91
2022/04/13 02:38:02;;;;;;;7.27;4.53;;;14.90;63.00;;;;;;10317595;28;20211;-92
2022/04/13 02:43:05;;;;;;;7.40;5.00;;;15.00;62.10;;;;;;10333090;28;20259;-94
2022/04/13 02:48:08;;;;;;;9.00;6.30;;;14.90;63.10;;;;;;10332850;28;20619;-92
2022/04/13 02:53:10;;;;;;;8.43;4.77;;;14.80;61.60;;;;;;10358227;28;20274;-92
2022/04/13 02:58:13;;;;;;;7.53;5.70;;;14.90;63.00;;;;;;10357204;28;20578;-92
2022/04/13 03:03:16;;;;;;;7.33;5.43;;;14.70;63.40;;;;;;10361503;28;20208;-92
2022/04/13 03:08:19;;;;;;;7.20;5.20;;;14.40;63.40;;;;;;10356253;28;20208;-92
2022/04/13 03:13:21;;;;;;;7.07;5.13;;;14.80;63.30;;;;;;10346460;28;20262;-92
2022/04/13 03:18:25;;;;;;;6.00;4.93;;;14.60;63.30;;;;;;10347439;28;20205;-92
2022/04/13 03:23:28;;;;;;;11.23;8.70;;;14.50;63.60;;;;;;10347903;28;20258;-91
2022/04/13 03:28:30;;;;;;;5.60;4.97;;;14.10;61.70;;;;;;10373034;28;20302;-92
2022/04/13 03:33:33;;;;;;;8.17;5.27;;;14.10;64.70;;;;;;10339686;28;20270;-92
2022/04/13 03:38:36;;;;;;;7.13;5.10;;;13.80;64.40;;;;;;10347093;28;20231;-92
2022/04/13 03:43:38;;;;;;;6.60;5.30;;;13.40;66.40;;;;;;10348082;28;20276;-90
2022/04/13 03:48:41;;;;;;;13.13;8.53;;;13.70;66.00;;;;;;10331043;28;20562;-92
2022/04/13 03:53:43;;;;;;;9.53;7.47;;;13.20;62.40;;;;;;10365502;28;20241;-92
2022/04/13 03:58:46;;;;;;;11.23;7.03;;;12.30;67.50;;;;;;10367873;28;20247;-92
2022/04/13 04:03:48;;;;;;;11.47;7.83;;;12.00;68.40;;;;;;10348105;28;20263;-92
2022/04/13 04:08:51;;;;;;;5.63;4.87;;;11.50;67.80;;;;;;10319762;28;20202;-92
2022/04/13 04:13:55;;;;;;;10.63;6.70;;;11.70;70.50;;;;;;10356745;28;20239;-92
2022/04/13 04:18:57;;;;;;;13.87;8.53;;;11.90;70.80;;;;;;10322229;28;20209;-92
2022/04/13 04:24:00;;;;;;;8.33;6.30;;;11.80;67.00;;;;;;10301133;28;20264;-91
2022/04/13 04:29:02;;;;;;;8.87;6.73;;;12.30;70.60;;;;;;10300834;28;20213;-91
2022/04/13 04:34:05;;;;;;;9.53;6.63;;;12.30;68.90;;;;;;10316789;28;20237;-93
2022/04/13 04:39:08;;;;;;;8.37;5.93;;;12.90;67.30;;;;;;10300591;28;20212;-92
2022/04/13 04:44:11;;;;;;;6.53;5.00;;;12.40;67.20;;;;;;10316351;28;20209;-91
2022/04/13 04:49:14;;;;;;;9.57;6.97;;;13.00;67.90;;;;;;10340790;28;20234;-91
2022/04/13 04:54:17;;;;;;;17.37;12.43;;;13.10;67.60;;;;;;10331992;28;20236;-92
2022/04/13 04:59:19;;;;;;;14.70;8.50;;;12.70;60.20;;;;;;10315484;28;20302;-92
2022/04/13 05:04:22;;;;;;;14.10;7.37;;;12.70;67.20;;;;;;10343616;28;20217;-94
2022/04/13 05:09:31;;;;;;;5.10;4.53;;;13.10;66.70;;;;;;10331360;28;20236;-94
2022/04/13 05:14:45;;;;;;;10.47;6.23;;;13.50;67.30;;;;;;10358628;28;20281;-92
2022/04/13 05:19:51;;;;;;;16.50;11.23;;;13.70;66.20;;;;;;10356909;28;20204;-93
2022/04/13 05:25:09;;;;;;;7.60;6.00;;;13.60;60.30;;;;;;10341295;28;20548;-93
2022/04/13 05:30:14;;;;;;;5.63;5.03;;;13.90;65.80;;;;;;10371054;28;20266;-91
2022/04/13 05:36:08;;;;;;;7.37;5.43;;;13.90;65.50;;;;;;10341329;28;20228;-93
2022/04/13 05:42:03;;;;;;;6.00;4.67;;;14.10;63.50;;;;;;10235281;29;20215;-92
2022/04/13 05:47:11;;;;;;;9.33;6.47;;;14.50;64.40;;;;;;10233849;29;20266;-93
2022/04/13 05:52:15;;;;;;;7.20;4.47;;;15.00;62.10;;;;;;10217244;29;20287;-92
2022/04/13 05:58:09;;;;;;;7.97;4.53;;;15.20;62.50;;;;;;10270507;28;20213;-92
2022/04/13 06:03:13;;;;;;;7.67;5.53;;;15.30;62.30;;;;;;10286686;28;20213;-92
2022/04/13 06:08:40;;;;;;;6.77;4.93;;;15.30;61.70;;;;;;10296169;28;20233;-92
2022/04/13 06:13:43;;;;;;;6.13;4.63;;;15.40;61.30;;;;;;10224503;29;20231;-95
2022/04/13 06:18:48;;;;;;;6.47;4.87;;;15.60;61.50;;;;;;10194032;29;20221;-95
2022/04/13 06:23:50;;;;;;;20.10;12.43;;;15.70;61.20;;;;;;10224005;29;20215;-94
2022/04/13 06:29:05;;;;;;;22.80;15.17;;;15.00;53.70;;;;;;10179012;29;20211;-95
2022/04/13 06:34:07;;;;;;;26.70;15.67;;;13.80;54.90;;;;;;10179649;29;20223;-93
2022/04/13 06:39:14;;;;;;;18.40;12.80;;;14.20;54.50;;;;;;10169095;29;20212;-95
2022/04/13 06:51:20;;;;;;;20.20;12.60;;;14.50;55.70;;;;;;10155584;29;20212;-96
2022/04/13 06:56:25;;;;;;;15.87;11.10;;;15.00;54.70;;;;;;10143737;29;20282;-96
2022/04/13 07:01:31;;;;;;;18.63;13.10;;;15.30;54.20;;;;;;10254424;28;20205;-96
2022/04/13 07:06:34;;;;;;;12.87;10.17;;;15.00;54.30;;;;;;10290032;28;20762;-96
2022/04/13 07:12:29;;;;;;;16.50;11.53;;;15.00;54.80;;;;;;10302307;28;20384;-96
2022/04/13 07:17:34;;;;;;;16.80;11.60;;;15.20;53.80;;;;;;10329974;28;20216;-96
2022/04/13 07:22:53;;;;;;;16.43;11.40;;;15.00;55.20;;;;;;10330753;28;20272;-96
2022/04/13 07:28:04;;;;;;;19.07;12.47;;;15.60;54.00;;;;;;10340785;28;20223;-96
2022/04/13 07:33:07;;;;;;;18.20;13.47;;;14.90;54.00;;;;;;10337112;28;20224;-96
2022/04/13 07:38:13;;;;;;;19.83;12.17;;;15.30;53.90;;;;;;10322313;28;20201;-96
2022/04/13 07:43:16;;;;;;;18.37;11.67;;;15.30;53.70;;;;;;10321586;28;20232;-96
2022/04/13 07:48:19;;;;;;;23.03;16.27;;;15.20;54.00;;;;;;10322629;28;20714;-93
2022/04/13 07:53:22;;;;;;;21.20;15.00;;;14.60;53.70;;;;;;10323897;28;20225;-96
2022/04/13 07:58:29;;;;;;;25.43;14.43;;;13.20;56.70;;;;;;10329207;28;20255;-95
2022/04/13 08:03:32;;;;;;;19.50;13.17;;;13.60;58.90;;;;;;10328464;28;20209;-94
2022/04/13 08:08:38;;;;;;;20.20;14.00;;;14.10;58.80;;;;;;10344677;28;20275;-95
2022/04/13 08:13:42;;;;;;;15.30;9.30;;;13.90;58.40;;;;;;10359606;28;20256;-94
2022/04/13 08:18:51;;;;;;;16.53;11.83;;;14.40;63.90;;;;;;10370962;28;20205;-95
2022/04/13 08:24:13;;;;;;;10.37;7.73;;;14.50;57.20;;;;;;10370522;28;20213;-94
2022/04/13 08:29:49;;;;;;;16.17;9.63;;;16.10;60.60;;;;;;10341089;28;20217;-95
2022/04/13 08:34:59;;;;;;;10.53;7.63;;;16.50;56.00;;;;;;10271196;29;20228;-94
2022/04/13 08:40:09;;;;;;;10.43;7.27;;;17.50;62.20;;;;;;10241732;29;20210;-94
2022/04/13 08:45:31;;;;;;;8.00;6.60;;;18.20;60.80;;;;;;10255158;29;20210;-95
2022/04/13 08:51:04;;;;;;;14.77;9.63;;;18.20;62.50;;;;;;10241840;29;20663;-95
2022/04/13 09:10:12;;;;;;;17.80;11.80;;;15.20;54.00;;;;;;10196787;29;20195;-95
2022/04/13 09:15:16;;;;;;;19.23;11.97;;;15.20;51.90;;;;;;10204556;29;20276;-94
2022/04/13 09:56:01;;;;;;;11.57;7.60;;;16.70;56.00;;;;;;10138669;29;20336;-94
2022/04/13 10:35:55;;;;;;;8.77;6.43;;;16.40;52.00;;;;;;10360444;23;20746;-83
2022/04/13 10:40:58;;;;;;;12.57;10.57;;;16.30;58.80;;;;;;10281830;28;20202;-84
2022/04/13 10:46:01;;;;;;;11.13;8.17;;;16.40;48.60;;;;;;10299219;28;20205;-85
2022/04/13 10:51:17;;;;;;;13.73;10.10;;;16.80;51.00;;;;;;10296560;28;20209;-85
2022/04/13 10:56:20;;;;;;;12.53;10.43;;;16.80;57.00;;;;;;10257778;28;20361;-86
2022/04/13 11:01:25;;;;;;;10.47;8.60;;;16.60;47.50;;;;;;10272502;28;20210;-85
2022/04/13 11:06:28;;;;;;;18.17;10.90;;;16.20;49.30;;;;;;10291080;28;20233;-85
2022/04/13 11:11:35;;;;;;;10.00;8.47;;;16.40;48.30;;;;;;10291167;28;20691;-85
2022/04/13 11:16:37;;;;;;;18.47;11.67;;;16.50;48.70;;;;;;10289887;28;20263;-86
2022/04/13 11:22:03;;;;;;;5.83;5.27;;;16.30;48.10;;;;;;10271431;28;20287;-85
2022/04/13 11:27:07;;;;;;;13.20;9.27;;;17.40;57.30;;;;;;10268590;28;20285;-85
2022/04/13 11:32:23;;;;;;;7.17;5.53;;;16.80;53.00;;;;;;10273315;28;20245;-85
2022/04/13 11:37:42;;;;;;;10.67;8.10;;;17.20;53.50;;;;;;10289205;28;20256;-85
2022/04/13 11:42:46;;;;;;;21.23;10.80;;;17.60;54.20;;;;;;10288144;28;20266;-85
2022/04/13 11:47:58;;;;;;;12.90;9.47;;;16.60;46.20;;;;;;10249940;28;20391;-85
2022/04/13 11:53:06;;;;;;;6.00;4.87;;;16.80;45.30;;;;;;10232279;28;20265;-85
2022/04/13 11:58:08;;;;;;;10.73;9.20;;;17.10;59.10;;;;;;10253649;28;20240;-85
2022/04/13 12:03:22;;;;;;;15.90;10.93;;;17.10;45.50;;;;;;10271248;28;20218;-86
2022/04/13 12:08:31;;;;;;;12.87;8.57;;;17.00;45.10;;;;;;10271053;28;20213;-86
2022/04/13 12:13:49;;;;;;;15.63;10.53;;;17.20;47.70;;;;;;10266876;28;20702;-85
2022/04/13 12:18:54;;;;;;;5.97;5.23;;;17.40;43.80;;;;;;10239960;28;20516;-85
2022/04/13 12:24:06;;;;;;;12.40;9.77;;;17.40;56.80;;;;;;10290732;28;20210;-86
2022/04/13 12:29:13;;;;;;;12.23;8.10;;;17.50;46.00;;;;;;10273175;28;20615;-85
2022/04/13 12:34:16;;;;;;;19.53;9.83;;;17.40;43.80;;;;;;10288305;28;20253;-85
2022/04/13 12:39:24;;;;;;;13.70;10.40;;;17.30;43.50;;;;;;10288476;28;20535;-86
2022/04/13 12:44:29;;;;;;;10.47;7.77;;;17.20;45.80;;;;;;10288974;28;20295;-86
2022/04/13 12:49:32;;;;;;;16.93;10.03;;;17.50;53.20;;;;;;10285781;28;20711;-86
2022/04/13 12:54:37;;;;;;;8.53;4.97;;;17.50;45.00;;;;;;10285714;28;20252;-85
2022/04/13 12:59:42;;;;;;;15.83;10.27;;;17.50;47.90;;;;;;10273982;28;20212;-86
2022/04/13 13:04:46;;;;;;;16.53;10.23;;;17.30;45.30;;;;;;10277627;28;20267;-85
2022/04/13 13:09:52;;;;;;;18.70;9.50;;;17.70;46.10;;;;;;10280961;28;20206;-86
2022/04/13 13:14:56;;;;;;;7.37;5.83;;;17.50;43.30;;;;;;10277836;28;20304;-85
2022/04/13 13:20:15;;;;;;;12.53;7.83;;;17.60;47.20;;;;;;10268082;28;20205;-85
2022/04/13 13:25:18;;;;;;;7.40;6.03;;;17.40;41.00;;;;;;10287850;28;20241;-86
2022/04/13 13:30:21;;;;;;;11.67;9.50;;;17.40;47.50;;;;;;10247848;29;20217;-87
2022/04/13 13:35:29;;;;;;;10.67;7.53;;;17.30;41.60;;;;;;10268522;28;20286;-86
2022/04/13 13:40:41;;;;;;;5.73;4.50;;;17.30;40.50;;;;;;10272363;28;20205;-90
2022/04/13 13:45:49;;;;;;;6.60;5.90;;;17.80;55.90;;;;;;10282511;28;20284;-90
2022/04/13 13:50:58;;;;;;;10.57;6.20;;;17.90;47.00;;;;;;10299784;28;20721;-91
2022/04/13 13:56:03;;;;;;;9.00;6.53;;;18.00;45.80;;;;;;10281208;28;20307;-91
2022/04/13 14:01:06;;;;;;;12.60;6.73;;;18.10;45.00;;;;;;10283126;28;20209;-91
2022/04/13 14:06:11;;;;;;;16.90;7.23;;;18.10;43.30;;;;;;10282816;28;20276;-84
2022/04/13 14:11:13;;;;;;;12.43;7.50;;;18.20;43.70;;;;;;10279380;28;20269;-85
2022/04/13 14:16:17;;;;;;;15.20;8.93;;;18.20;43.10;;;;;;10303018;28;20626;-85
2022/04/13 14:21:20;;;;;;;13.07;8.47;;;18.10;43.90;;;;;;10331148;28;20205;-85
2022/04/13 14:26:23;;;;;;;12.77;8.00;;;18.20;42.20;;;;;;10314430;28;20241;-86
2022/04/13 14:31:25;;;;;;;15.10;7.83;;;17.80;41.10;;;;;;10255635;29;20214;-84
2022/04/13 14:36:28;;;;;;;7.77;5.97;;;17.40;41.70;;;;;;10234736;29;20328;-85
2022/04/13 14:41:32;;;;;;;8.00;6.07;;;17.50;47.10;;;;;;10279941;28;20264;-85
2022/04/13 14:46:34;;;;;;;6.27;4.53;;;18.20;54.90;;;;;;10292015;28;20691;-85
2022/04/13 14:51:37;;;;;;;5.67;4.33;;;18.50;56.80;;;;;;10290048;28;20557;-85
2022/04/13 14:56:40;;;;;;;3.97;3.20;;;19.00;47.20;;;;;;10301312;28;20233;-84
2022/04/13 15:01:46;;;;;;;12.90;6.83;;;19.10;47.70;;;;;;10287306;28;20296;-82
2022/04/13 15:06:48;;;;;;;9.67;7.13;;;19.20;42.80;;;;;;10281881;28;20234;-82
2022/04/13 15:11:52;;;;;;;11.33;7.10;;;19.50;41.30;;;;;;10289781;28;20647;-84
2022/04/13 15:16:55;;;;;;;13.40;5.70;;;19.50;42.50;;;;;;10272848;28;20316;-84
2022/04/13 15:21:57;;;;;;;11.27;7.73;;;19.60;43.00;;;;;;10290169;28;20683;-84
2022/04/13 15:27:01;;;;;;;7.90;5.93;;;19.50;42.30;;;;;;10272881;28;20304;-84
2022/04/13 15:32:04;;;;;;;5.67;4.37;;;19.50;43.60;;;;;;10272520;28;20304;-84
2022/04/13 15:37:07;;;;;;;7.83;5.57;;;19.50;44.40;;;;;;10287812;28;20280;-84
2022/04/13 15:42:09;;;;;;;8.93;4.30;;;19.60;43.90;;;;;;10266914;28;20281;-84
2022/04/13 15:47:17;;;;;;;7.60;3.90;;;19.60;45.10;;;;;;10232939;29;20277;-84
2022/04/13 15:52:21;;;;;;;8.63;4.70;;;19.60;45.30;;;;;;10234017;28;20250;-84
2022/04/13 15:57:24;;;;;;;4.70;3.10;;;19.50;45.50;;;;;;9949059;28;10000202;-84
2022/04/13 16:02:27;;;;;;;5.18;3.03;;;19.40;46.00;;;;;;10280331;28;20218;-84
2022/04/13 16:07:30;;;;;;;3.50;3.20;;;19.40;46.30;;;;;;10276421;28;20209;-84
2022/04/13 16:12:32;;;;;;;4.03;3.23;;;19.30;46.70;;;;;;10263452;28;20210;-85
2022/04/13 16:17:35;;;;;;;3.57;3.00;;;19.20;47.00;;;;;;10294250;28;20237;-84
2022/04/13 16:22:38;;;;;;;5.13;3.17;;;19.10;47.50;;;;;;10284267;28;20211;-85
2022/04/13 16:27:40;;;;;;;3.50;2.97;;;19.10;47.80;;;;;;10280087;28;20602;-85
2022/04/13 16:32:43;;;;;;;3.30;2.63;;;19.00;48.10;;;;;;10293246;28;20213;-84
2022/04/13 16:37:46;;;;;;;5.93;3.60;;;18.90;48.40;;;;;;10292366;28;20253;-85
2022/04/13 16:43:09;;;;;;;4.30;3.00;;;18.80;48.80;;;;;;10278345;28;20201;-84
2022/04/13 16:48:11;;;;;;;5.47;3.20;;;18.70;49.10;;;;;;10253060;28;20214;-84
2022/04/13 16:53:15;;;;;;;5.90;2.90;;;18.60;49.40;;;;;;10257165;29;20206;-85
2022/04/13 16:58:17;;;;;;;4.13;3.00;;;18.50;49.90;;;;;;10278752;28;20561;-84
2022/04/13 17:03:20;;;;;;;5.33;3.07;;;;;;;;;;10262326;28;20586;-84
2022/04/13 17:08:25;;;;;;;3.60;2.70;;;18.10;50.20;;;;;;10272030;28;20613;-85
2022/04/13 17:13:28;;;;;;;3.33;2.93;;;18.00;51.00;;;;;;10278841;28;20288;-85
2022/04/13 17:18:31;;;;;;;4.03;2.87;;;17.80;51.50;;;;;;10295164;28;20280;-85
2022/04/13 17:23:34;;;;;;;4.83;3.40;;;17.70;51.80;;;;;;10263718;28;20257;-85
2022/04/13 17:28:36;;;;;;;4.47;3.80;;;17.60;52.30;;;;;;10287354;28;20213;-83
2022/04/13 17:33:40;;;;;;;16.57;10.00;;;17.50;52.70;;;;;;10244801;28;20262;-84
2022/04/13 17:38:43;;;;;;;11.63;6.80;;;17.20;52.50;;;;;;10298572;28;20234;-85
2022/04/13 17:43:45;;;;;;;27.47;16.17;;;16.90;53.50;;;;;;10265369;28;20219;-84
2022/04/13 17:48:48;;;;;;;21.77;14.13;;;16.50;71.90;;;;;;10275796;28;20336;-84
2022/04/13 17:53:50;;;;;;;20.13;12.50;;;15.90;81.40;;;;;;10260189;28;20226;-84
2022/04/13 17:58:53;;;;;;;23.40;13.90;;;15.30;73.40;;;;;;10289934;28;20205;-84
2022/04/13 18:03:57;;;;;;;24.03;9.90;;;14.70;76.50;;;;;;10281452;28;20213;-85
2022/04/13 18:08:59;;;;;;;19.43;10.33;;;14.60;77.60;;;;;;10280045;28;20217;-85
2022/04/13 18:14:02;;;;;;;23.53;12.20;;;14.40;76.00;;;;;;10293419;28;20710;-85
2022/04/13 18:19:04;;;;;;;27.23;14.27;;;14.30;74.50;;;;;;10239448;28;20241;-85
2022/04/13 18:24:07;;;;;;;4.13;3.27;;;14.50;73.60;;;;;;10252585;28;20241;-84
2022/04/13 18:29:09;;;;;;;22.70;14.10;;;14.50;75.10;;;;;;10276849;28;20242;-84
2022/04/13 18:34:12;;;;;;;5.93;5.00;;;14.70;72.10;;;;;;10281907;28;20258;-85
2022/04/13 18:39:14;;;;;;;5.63;4.20;;;14.90;74.60;;;;;;9549376;29;10000715;-85
2022/04/13 18:44:21;;;;;;;19.80;12.00;;;15.10;74.10;;;;;;10244794;29;20238;-84
2022/04/13 18:49:24;;;;;;;8.13;4.90;;;15.20;73.10;;;;;;10246211;29;20269;-85
2022/04/13 18:54:28;;;;;;;12.57;7.30;;;15.60;72.60;;;;;;10226757;28;20390;-85
2022/04/13 18:59:31;;;;;;;30.33;14.90;;;15.20;72.00;;;;;;10231487;28;20829;-83
2022/04/13 19:04:34;;;;;;;8.90;5.90;;;14.80;71.30;;;;;;10233006;28;20741;-83
2022/04/13 19:09:38;;;;;;;9.80;5.63;;;14.70;74.20;;;;;;10265901;28;20240;-83
2022/04/13 19:14:41;;;;;;;12.53;8.30;;;15.00;73.90;;;;;;10253880;28;20269;-83
2022/04/13 19:19:43;;;;;;;7.50;5.77;;;14.80;71.70;;;;;;10244011;29;20245;-84
2022/04/13 19:24:47;;;;;;;22.03;11.90;;;14.70;74.60;;;;;;10244933;29;20307;-84
2022/04/13 19:29:50;;;;;;;14.40;9.13;;;14.80;73.00;;;;;;10225802;29;20240;-84
2022/04/13 19:34:52;;;;;;;8.33;5.87;;;14.40;74.50;;;;;;10237884;28;20261;-83
2022/04/13 19:39:55;;;;;;;5.23;4.53;;;14.50;74.90;;;;;;10227590;29;20305;-84
2022/04/13 19:45:00;;;;;;;5.23;4.43;;;14.80;74.30;;;;;;10220101;29;20704;-84
2022/04/13 19:50:03;;;;;;;5.20;4.13;;;15.50;73.40;;;;;;10222310;29;20634;-84
2022/04/13 19:55:07;;;;;;;4.57;3.80;;;16.00;72.30;;;;;;10206753;29;20646;-84
2022/04/13 20:00:10;;;;;;;4.80;4.10;;;16.30;71.70;;;;;;10213193;29;20285;-84
2022/04/13 20:05:13;;;;;;;4.40;4.00;;;16.10;71.90;;;;;;10198060;29;20333;-84
2022/04/13 20:10:16;;;;;;;19.73;12.80;;;16.30;71.30;;;;;;10216100;29;20283;-84
2022/04/13 20:15:19;;;;;;;12.70;8.60;;;16.10;70.20;;;;;;10215600;28;20260;-84
2022/04/13 20:20:22;;;;;;;26.40;15.17;;;15.90;71.40;;;;;;10244358;29;20508;-84
2022/04/13 20:25:33;;;;;;;10.70;6.30;;;15.70;68.10;;;;;;10226076;29;20270;-84
2022/04/13 20:30:38;;;;;;;8.03;6.17;;;15.60;71.80;;;;;;10228834;28;20250;-84
2022/04/13 20:35:41;;;;;;;7.20;4.57;;;15.50;72.10;;;;;;10235867;28;20316;-83
2022/04/13 20:40:43;;;;;;;27.53;16.77;;;15.70;72.70;;;;;;10243297;28;20614;-84
2022/04/13 20:45:46;;;;;;;7.57;4.33;;;15.80;69.40;;;;;;10269404;28;20304;-84
2022/04/13 20:50:49;;;;;;;7.30;5.10;;;15.60;72.90;;;;;;10264785;28;20237;-84
2022/04/13 20:55:51;;;;;;;16.60;10.03;;;16.00;72.10;;;;;;10265081;28;20321;-84
2022/04/13 21:00:55;;;;;;;8.20;5.17;;;15.90;71.60;;;;;;10284247;28;20673;-84
2022/04/13 21:05:58;;;;;;;8.67;4.93;;;15.80;72.50;;;;;;10256053;28;20265;-84
2022/04/13 21:11:00;;;;;;;6.57;5.30;;;15.50;73.00;;;;;;10261002;28;20237;-84
2022/04/13 21:16:05;;;;;;;11.30;7.17;;;15.60;73.00;;;;;;10285632;28;20278;-84
2022/04/13 21:21:08;;;;;;;7.53;5.33;;;14.60;74.30;;;;;;10286545;28;20201;-84
2022/04/13 21:26:10;;;;;;;15.33;9.43;;;14.20;71.10;;;;;;10290801;28;20629;-84
2022/04/13 21:31:13;;;;;;;16.47;9.07;;;13.90;66.60;;;;;;10299277;28;20239;-84
2022/04/13 21:36:15;;;;;;;15.83;9.67;;;11.50;72.80;;;;;;10281567;28;20254;-84
2022/04/13 21:41:18;;;;;;;18.37;10.17;;;12.50;65.70;;;;;;10269252;28;20233;-84
2022/04/13 21:46:20;;;;;;;19.27;11.83;;;12.30;65.60;;;;;;10273247;28;20239;-84
2022/04/13 21:51:24;;;;;;;19.17;12.00;;;11.90;63.90;;;;;;10273496;28;20371;-84
2022/04/13 21:56:27;;;;;;;17.33;10.10;;;11.20;66.00;;;;;;10286047;28;20316;-84
2022/04/13 22:01:29;;;;;;;12.60;8.80;;;11.20;66.30;;;;;;10253967;28;20234;-84
2022/04/13 22:06:32;;;;;;;8.43;6.07;;;12.10;66.80;;;;;;10265158;28;20660;-84
2022/04/13 22:11:35;;;;;;;17.27;10.27;;;12.50;68.50;;;;;;10264993;28;20233;-84
2022/04/13 22:16:38;;;;;;;14.57;9.20;;;11.90;64.60;;;;;;10258691;28;20259;-84
2022/04/13 22:21:40;;;;;;;18.00;11.13;;;11.50;67.40;;;;;;10244548;28;20238;-84
2022/04/13 22:26:43;;;;;;;18.77;13.17;;;;;;;;;;10275517;28;20233;-83
2022/04/13 22:31:46;;;;;;;18.90;13.47;;;9.20;68.30;;;;;;10291893;28;20233;-84
2022/04/13 22:36:48;;;;;;;22.33;13.50;;;8.40;71.30;;;;;;10290939;28;20268;-84
2022/04/13 22:41:51;;;;;;;19.17;13.27;;;8.00;73.60;;;;;;10273652;28;21027;-84
2022/04/13 22:46:53;;;;;;;17.70;11.97;;;7.40;75.50;;;;;;10261114;28;20295;-84
2022/04/13 22:51:56;;;;;;;20.17;12.33;;;7.20;76.80;;;;;;10269638;28;20294;-84
2022/04/13 22:56:58;;;;;;;19.60;13.63;;;7.60;78.10;;;;;;10265100;28;20257;-84
2022/04/13 23:02:01;;;;;;;22.57;13.40;;;7.50;76.60;;;;;;10277942;28;20621;-84
2022/04/13 23:07:03;;;;;;;21.07;11.87;;;7.50;76.60;;;;;;10284326;28;20308;-83
2022/04/13 23:12:07;;;;;;;21.50;13.23;;;8.70;75.00;;;;;;10252296;29;20249;-83
2022/04/13 23:17:09;;;;;;;8.07;5.80;;;9.20;70.70;;;;;;10233868;28;20698;-83
2022/04/13 23:22:12;;;;;;;6.90;5.00;;;10.80;76.20;;;;;;10252057;29;20607;-84
2022/04/13 23:27:15;;;;;;;12.47;8.23;;;;;;;;;;10283021;28;20307;-84
2022/04/13 23:32:18;;;;;;;7.10;5.50;;;12.60;69.10;;;;;;10263493;28;20238;-84
2022/04/13 23:37:20;;;;;;;9.53;5.57;;;12.90;68.30;;;;;;10274532;28;20301;-84
2022/04/13 23:42:22;;;;;;;7.57;5.37;;;13.00;67.60;;;;;;10289099;28;20742;-84
2022/04/13 23:47:25;;;;;;;17.23;9.03;;;13.10;67.60;;;;;;10289795;28;20243;-83
2022/04/13 23:52:27;;;;;;;16.70;9.70;;;12.90;65.70;;;;;;10286720;28;20305;-84
2022/04/13 23:57:30;;;;;;;21.67;14.17;;;12.60;64.50;;;;;;10290333;28;20326;-84
